Terminal Aerodrome Forecast
Issued by NWS

Home | Current Version | Previous Version | Text Only | Print | Product List | Glossary On
Versions: 1 2 3 4 5 6 7 8 9 10 11 12 13 14 15 16 17 18 19 20 21 22 23 24 25 26 27 28 29 30 31 32 33 34 35 36 37 38 39 40 41
000
FTUS43 KDLH 212100 AAC
TAFBRD
TAF AMD
KBRD 212114Z 2121/2218 09006KT P6SM OVC011
     FM212300 09005KT P6SM -SHRA VCTS OVC013CB
     FM220300 10003KT P6SM OVC011
     FM220600 VRB03KT 2SM BR OVC006
     FM221500 35005KT 5SM BR OVC008=

USA.gov is the U.S. government's official web portal to all federal, state and local government web resources and services.